Time,TemperatureF,DewpointF,PressureIn,WindDirection,WindDirectionDegrees,WindSpeedMPH,WindSpeedGustMPH,Humidity,HourlyPrecipIn,Conditions,Clouds,dailyrainin,SoftwareType,DateUTC
2013-03-08 00:00:00,52.3,21.2,29.32,NNE,22,9.0,9.0,29,0.00,,,0.00,WeatherTracker,2013-03-08 06:00:00,
2013-03-08 00:05:00,52.3,21.2,29.32,NNW,337,6.0,6.0,29,0.00,,,0.00,WeatherTracker,2013-03-08 06:05:00,
2013-03-08 00:10:00,52.3,21.2,29.32,NNE,22,6.0,6.0,29,0.00,,,0.00,WeatherTracker,2013-03-08 06:10:00,
2013-03-08 00:15:00,52.2,21.2,29.32,North,0,7.0,7.0,29,0.00,,,0.00,WeatherTracker,2013-03-08 06:15:00,
2013-03-08 00:20:00,52.2,21.2,29.29,North,0,6.0,6.0,29,0.00,,,0.00,WeatherTracker,2013-03-08 06:20:00,
2013-03-08 00:25:00,52.2,21.2,29.29,NE,45,7.0,7.0,29,0.00,,,0.00,WeatherTracker,2013-03-08 06:25:00,
2013-03-08 00:30:00,52.0,21.2,29.29,NNE,22,6.0,6.0,29,0.00,,,0.00,WeatherTracker,2013-03-08 06:30:00,
2013-03-08 00:35:00,52.0,21.2,29.32,North,0,6.0,8.0,29,0.00,,,0.00,WeatherTracker,2013-03-08 06:35:00,
2013-03-08 00:40:00,51.8,21.2,29.32,NNE,22,6.0,8.0,30,0.00,,,0.00,WeatherTracker,2013-03-08 06:40:00,
2013-03-08 00:45:00,51.6,21.2,29.32,North,0,6.0,6.0,30,0.00,,,0.00,WeatherTracker,2013-03-08 06:45:00,
2013-03-08 00:50:00,51.4,21.2,29.29,NNE,22,5.0,5.0,30,0.00,,,0.00,WeatherTracker,2013-03-08 06:50:00,
2013-03-08 00:55:00,51.3,21.2,29.29,NNE,22,6.0,6.0,30,0.00,,,0.00,WeatherTracker,2013-03-08 06:55:00,
2013-03-08 01:00:00,51.1,21.2,29.29,North,0,5.0,6.0,31,0.00,,,0.00,WeatherTracker,2013-03-08 07:00:00,
2013-03-08 01:10:00,50.9,21.2,29.32,NNE,22,6.0,6.0,31,0.00,,,0.00,WeatherTracker,2013-03-08 07:10:00,
2013-03-08 01:15:00,50.9,21.2,29.32,North,0,6.0,6.0,31,0.00,,,0.00,WeatherTracker,2013-03-08 07:15:00,
2013-03-08 01:25:00,50.5,21.2,29.32,NNE,22,6.0,6.0,31,0.00,,,0.00,WeatherTracker,2013-03-08 07:25:00,
2013-03-08 01:35:00,50.2,21.2,29.32,North,0,6.0,6.0,32,0.00,,,0.00,WeatherTracker,2013-03-08 07:35:00,
2013-03-08 01:40:00,50.2,21.2,29.32,NNE,22,5.0,5.0,32,0.00,,,0.00,WeatherTracker,2013-03-08 07:40:00,
2013-03-08 01:45:00,49.8,23.0,29.32,NNE,22,3.0,3.0,33,0.00,,,0.00,WeatherTracker,2013-03-08 07:45:00,
2013-03-08 01:55:00,49.5,21.2,29.32,North,0,2.0,2.0,33,0.00,,,0.00,WeatherTracker,2013-03-08 07:55:00,
2013-03-08 02:05:00,49.5,23.0,29.32,North,0,3.0,4.0,34,0.00,,,0.00,WeatherTracker,2013-03-08 08:05:00,
2013-03-08 02:10:00,49.5,23.0,29.32,NNE,22,3.0,4.0,35,0.00,,,0.00,WeatherTracker,2013-03-08 08:10:00,
2013-03-08 02:20:00,49.8,24.8,29.32,North,0,4.0,4.0,36,0.00,,,0.00,WeatherTracker,2013-03-08 08:20:00,
2013-03-08 02:25:00,50.0,23.0,29.32,NNE,22,5.0,5.0,35,0.00,,,0.00,WeatherTracker,2013-03-08 08:25:00,
2013-03-08 02:35:00,50.2,24.8,29.29,North,0,6.0,6.0,36,0.00,,,0.00,WeatherTracker,2013-03-08 08:35:00,
2013-03-08 02:45:00,50.4,24.8,29.29,North,0,5.0,8.0,36,0.00,,,0.00,WeatherTracker,2013-03-08 08:45:00,
2013-03-08 02:50:00,50.4,24.8,29.32,NNE,22,5.0,6.0,36,0.00,,,0.00,WeatherTracker,2013-03-08 08:50:00,
2013-03-08 02:55:00,50.2,24.8,29.32,North,0,4.0,4.0,36,0.00,,,0.00,WeatherTracker,2013-03-08 08:55:00,
2013-03-08 03:05:00,49.6,23.0,29.29,NNE,22,2.0,2.0,36,0.00,,,0.00,WeatherTracker,2013-03-08 09:05:00,
2013-03-08 03:10:00,49.3,24.8,29.29,NNE,22,3.0,3.0,37,0.00,,,0.00,WeatherTracker,2013-03-08 09:10:00,
2013-03-08 03:20:00,49.5,24.8,29.32,NNE,22,4.0,4.0,37,0.00,,,0.00,WeatherTracker,2013-03-08 09:20:00,
2013-03-08 03:25:00,49.3,24.8,29.32,North,0,4.0,4.0,37,0.00,,,0.00,WeatherTracker,2013-03-08 09:25:00,
2013-03-08 03:35:00,49.3,24.8,29.29,North,0,4.0,5.0,37,0.00,,,0.00,WeatherTracker,2013-03-08 09:35:00,
2013-03-08 03:40:00,49.3,24.8,29.29,North,0,5.0,7.0,37,0.00,,,0.00,WeatherTracker,2013-03-08 09:40:00,
2013-03-08 03:50:00,49.3,24.8,29.32,NNE,22,4.0,8.0,37,0.00,,,0.00,WeatherTracker,2013-03-08 09:50:00,
2013-03-08 03:55:00,49.3,24.8,29.32,East,90,6.0,8.0,37,0.00,,,0.00,WeatherTracker,2013-03-08 09:55:00,
2013-03-08 04:05:00,49.3,24.8,29.32,North,0,6.0,7.0,37,0.00,,,0.00,WeatherTracker,2013-03-08 10:05:00,
2013-03-08 04:10:00,49.1,24.8,29.32,NNW,337,5.0,8.0,37,0.00,,,0.00,WeatherTracker,2013-03-08 10:10:00,
2013-03-08 04:15:00,49.1,24.8,29.32,NNE,22,6.0,7.0,37,0.00,,,0.00,WeatherTracker,2013-03-08 10:15:00,
2013-03-08 04:20:00,49.1,24.8,29.32,NNE,22,7.0,8.0,37,0.00,,,0.00,WeatherTracker,2013-03-08 10:20:00,
2013-03-08 04:30:00,48.9,24.8,29.32,North,0,5.0,6.0,38,0.00,,,0.00,WeatherTracker,2013-03-08 10:30:00,
2013-03-08 04:35:00,48.9,24.8,29.29,NNE,22,4.0,4.0,38,0.00,,,0.00,WeatherTracker,2013-03-08 10:35:00,
2013-03-08 04:45:00,48.9,24.8,29.29,NE,45,5.0,5.0,38,0.00,,,0.00,WeatherTracker,2013-03-08 10:45:00,
2013-03-08 04:50:00,48.9,24.8,29.32,NNE,22,6.0,6.0,38,0.00,,,0.00,WeatherTracker,2013-03-08 10:50:00,
2013-03-08 04:55:00,48.7,24.8,29.32,NNE,22,4.0,5.0,38,0.00,,,0.00,WeatherTracker,2013-03-08 10:55:00,
2013-03-08 05:05:00,48.7,24.8,29.32,NNE,22,4.0,4.0,38,0.00,,,0.00,WeatherTracker,2013-03-08 11:05:00,
2013-03-08 05:10:00,48.7,24.8,29.32,East,90,4.0,4.0,38,0.00,,,0.00,WeatherTracker,2013-03-08 11:10:00,
2013-03-08 05:20:00,48.6,24.8,29.32,NNE,22,4.0,4.0,38,0.00,,,0.00,WeatherTracker,2013-03-08 11:20:00,
2013-03-08 05:25:00,48.6,24.8,29.32,NNE,22,7.0,7.0,38,0.00,,,0.00,WeatherTracker,2013-03-08 11:25:00,
2013-03-08 05:30:00,48.6,24.8,29.32,NNE,22,5.0,5.0,38,0.00,,,0.00,WeatherTracker,2013-03-08 11:30:00,
2013-03-08 05:35:00,48.6,24.8,29.32,NNW,337,7.0,9.0,38,0.00,,,0.00,WeatherTracker,2013-03-08 11:35:00,
2013-03-08 05:40:00,48.6,24.8,29.32,North,0,7.0,7.0,38,0.00,,,0.00,WeatherTracker,2013-03-08 11:40:00,
2013-03-08 05:45:00,48.4,23.0,29.32,NE,45,6.0,6.0,38,0.00,,,0.00,WeatherTracker,2013-03-08 11:45:00,
2013-03-08 05:55:00,48.2,24.8,29.32,NNE,22,9.0,9.0,39,0.00,,,0.00,WeatherTracker,2013-03-08 11:55:00,
2013-03-08 06:00:00,48.2,24.8,29.32,NNE,22,6.0,6.0,39,0.00,,,0.00,WeatherTracker,2013-03-08 12:00:00,
2013-03-08 06:05:00,47.8,24.8,29.32,NNE,22,6.0,6.0,39,0.00,,,0.00,WeatherTracker,2013-03-08 12:05:00,
2013-03-08 06:15:00,47.8,24.8,29.32,NNE,22,7.0,7.0,39,0.00,,,0.00,WeatherTracker,2013-03-08 12:15:00,
2013-03-08 06:20:00,48.0,24.8,29.32,NNE,22,9.0,9.0,39,0.00,,,0.00,WeatherTracker,2013-03-08 12:20:00,
2013-03-08 06:30:00,48.0,24.8,29.32,NNE,22,7.0,7.0,39,0.00,,,0.00,WeatherTracker,2013-03-08 12:30:00,
2013-03-08 06:40:00,47.8,24.8,29.32,NNE,22,5.0,6.0,40,0.00,,,0.00,WeatherTracker,2013-03-08 12:40:00,
2013-03-08 06:45:00,48.0,24.8,29.32,North,0,5.0,9.0,40,0.00,,,0.00,WeatherTracker,2013-03-08 12:45:00,
2013-03-08 06:50:00,48.0,24.8,29.32,North,0,9.0,10.0,39,0.00,,,0.00,WeatherTracker,2013-03-08 12:50:00,
2013-03-08 07:00:00,48.0,24.8,29.32,NNE,22,7.0,7.0,40,0.00,,,0.00,WeatherTracker,2013-03-08 13:00:00,
2013-03-08 07:05:00,48.0,24.8,29.35,NNW,337,7.0,11.0,39,0.00,,,0.00,WeatherTracker,2013-03-08 13:05:00,
2013-03-08 07:15:00,48.0,24.8,29.35,NNE,22,8.0,10.0,40,0.00,,,0.00,WeatherTracker,2013-03-08 13:15:00,
2013-03-08 07:20:00,48.2,24.8,29.35,North,0,7.0,7.0,39,0.00,,,0.00,WeatherTracker,2013-03-08 13:20:00,
2013-03-08 07:30:00,48.2,24.8,29.35,North,0,7.0,7.0,39,0.00,,,0.00,WeatherTracker,2013-03-08 13:30:00,
2013-03-08 07:40:00,48.2,24.8,29.35,NNE,22,7.0,11.0,39,0.00,,,0.00,WeatherTracker,2013-03-08 13:40:00,
2013-03-08 07:50:00,48.4,24.8,29.38,NNE,22,10.0,11.0,39,0.00,,,0.00,WeatherTracker,2013-03-08 13:50:00,
2013-03-08 08:00:00,48.6,24.8,29.38,NNE,22,7.0,12.0,39,0.00,,,0.00,WeatherTracker,2013-03-08 14:00:00,
2013-03-08 08:10:00,48.7,24.8,29.38,NNE,22,6.0,6.0,39,0.00,,,0.00,WeatherTracker,2013-03-08 14:10:00,
2013-03-08 08:15:00,48.9,24.8,29.38,North,0,7.0,7.0,39,0.00,,,0.00,WeatherTracker,2013-03-08 14:15:00,
2013-03-08 08:20:00,49.1,26.6,29.35,North,0,10.0,10.0,39,0.00,,,0.00,WeatherTracker,2013-03-08 14:20:00,
2013-03-08 08:30:00,49.5,26.6,29.35,North,0,10.0,10.0,39,0.00,,,0.00,WeatherTracker,2013-03-08 14:30:00,
2013-03-08 08:35:00,49.8,24.8,29.35,NE,45,7.0,7.0,38,0.00,,,0.00,WeatherTracker,2013-03-08 14:35:00,
2013-03-08 08:45:00,50.2,24.8,29.35,NNW,337,8.0,8.0,38,0.00,,,0.00,WeatherTracker,2013-03-08 14:45:00,
2013-03-08 08:50:00,50.5,24.8,29.35,NNW,337,11.0,11.0,37,0.00,,,0.00,WeatherTracker,2013-03-08 14:50:00,
2013-03-08 08:55:00,50.7,26.6,29.35,North,0,8.0,8.0,38,0.00,,,0.00,WeatherTracker,2013-03-08 14:55:00,
2013-03-08 09:00:00,50.9,26.6,29.35,North,0,10.0,13.0,37,0.00,,,0.00,WeatherTracker,2013-03-08 15:00:00,
2013-03-08 09:10:00,51.1,26.6,29.35,NNE,22,9.0,9.0,38,0.00,,,0.00,WeatherTracker,2013-03-08 15:10:00,
2013-03-08 09:20:00,51.3,26.6,29.35,North,0,11.0,11.0,38,0.00,,,0.00,WeatherTracker,2013-03-08 15:20:00,
2013-03-08 09:25:00,51.4,26.6,29.35,North,0,12.0,12.0,38,0.00,,,0.00,WeatherTracker,2013-03-08 15:25:00,
2013-03-08 09:30:00,51.6,26.6,29.35,North,0,11.0,13.0,38,0.00,,,0.00,WeatherTracker,2013-03-08 15:30:00,
2013-03-08 09:35:00,52.5,26.6,29.35,North,0,9.0,11.0,37,0.00,,,0.00,WeatherTracker,2013-03-08 15:35:00,
2013-03-08 09:40:00,52.9,26.6,29.35,NNW,337,11.0,13.0,37,0.00,,,0.00,WeatherTracker,2013-03-08 15:40:00,
2013-03-08 09:45:00,53.1,26.6,29.35,North,0,11.0,15.0,37,0.00,,,0.00,WeatherTracker,2013-03-08 15:45:00,
2013-03-08 09:55:00,53.6,28.4,29.35,North,0,16.0,16.0,36,0.00,,,0.00,WeatherTracker,2013-03-08 15:55:00,
2013-03-08 10:00:00,53.6,28.4,29.35,NNE,22,10.0,13.0,36,0.00,,,0.00,WeatherTracker,2013-03-08 16:00:00,
2013-03-08 10:05:00,53.4,28.4,29.35,North,0,12.0,12.0,37,0.00,,,0.00,WeatherTracker,2013-03-08 16:05:00,
2013-03-08 10:10:00,53.4,28.4,29.35,NNE,22,10.0,10.0,37,0.00,,,0.00,WeatherTracker,2013-03-08 16:10:00,
2013-03-08 10:20:00,53.4,28.4,29.35,NNE,22,11.0,12.0,37,0.00,,,0.00,WeatherTracker,2013-03-08 16:20:00,
2013-03-08 10:30:00,53.1,28.4,29.35,North,0,9.0,9.0,38,0.00,,,0.00,WeatherTracker,2013-03-08 16:30:00,
2013-03-08 10:35:00,53.1,28.4,29.35,NNE,22,10.0,13.0,38,0.00,,,0.00,WeatherTracker,2013-03-08 16:35:00,
2013-03-08 10:45:00,52.3,28.4,29.35,NNE,22,8.0,9.0,40,0.00,,,0.00,WeatherTracker,2013-03-08 16:45:00,
2013-03-08 10:50:00,51.8,28.4,29.35,NNE,22,11.0,11.0,40,0.00,,,0.00,WeatherTracker,2013-03-08 16:50:00,
2013-03-08 10:55:00,51.8,28.4,29.35,NNE,22,10.0,10.0,40,0.00,,,0.00,WeatherTracker,2013-03-08 16:55:00,
2013-03-08 11:00:00,51.4,28.4,29.35,NNE,22,9.0,15.0,42,0.00,,,0.00,WeatherTracker,2013-03-08 17:00:00,
2013-03-08 11:05:00,50.9,30.2,29.35,North,0,7.0,7.0,44,0.00,,,0.00,WeatherTracker,2013-03-08 17:05:00,
2013-03-08 11:10:00,51.1,30.2,29.35,North,0,9.0,11.0,45,0.00,,,0.00,WeatherTracker,2013-03-08 17:10:00,
2013-03-08 11:20:00,51.4,30.2,29.35,NNE,22,9.0,9.0,44,0.00,,,0.00,WeatherTracker,2013-03-08 17:20:00,
2013-03-08 11:25:00,51.8,30.2,29.35,North,0,9.0,12.0,43,0.00,,,0.00,WeatherTracker,2013-03-08 17:25:00,
2013-03-08 11:30:00,52.0,30.2,29.35,North,0,11.0,15.0,44,0.00,,,0.00,WeatherTracker,2013-03-08 17:30:00,
2013-03-08 11:40:00,51.3,32.0,29.35,NNE,22,12.0,12.0,47,0.00,,,0.00,WeatherTracker,2013-03-08 17:40:00,
2013-03-08 11:45:00,51.6,32.0,29.35,NNW,337,10.0,10.0,47,0.00,,,0.00,WeatherTracker,2013-03-08 17:45:00,
2013-03-08 11:55:00,51.8,32.0,29.32,North,0,14.0,14.0,45,0.00,,,0.00,WeatherTracker,2013-03-08 17:55:00,
2013-03-08 12:05:00,51.6,32.0,29.35,NNE,22,11.0,11.0,46,0.00,,,0.00,WeatherTracker,2013-03-08 18:05:00,
2013-03-08 12:10:00,51.6,32.0,29.35,North,0,10.0,10.0,46,0.00,,,0.00,WeatherTracker,2013-03-08 18:10:00,
2013-03-08 12:20:00,51.4,32.0,29.35,NNE,22,11.0,15.0,48,0.00,,,0.00,WeatherTracker,2013-03-08 18:20:00,
2013-03-08 12:30:00,51.4,33.8,29.35,North,0,9.0,10.0,49,0.00,,,0.00,WeatherTracker,2013-03-08 18:30:00,
2013-03-08 12:40:00,51.4,33.8,29.35,NNW,337,6.0,6.0,49,0.00,,,0.00,WeatherTracker,2013-03-08 18:40:00,
2013-03-08 12:50:00,51.8,32.0,29.32,NNE,22,9.0,9.0,47,0.00,,,0.00,WeatherTracker,2013-03-08 18:50:00,
2013-03-08 12:55:00,52.2,32.0,29.32,North,0,12.0,12.0,46,0.00,,,0.00,WeatherTracker,2013-03-08 18:55:00,
2013-03-08 13:05:00,52.7,32.0,29.32,North,0,10.0,10.0,45,0.00,,,0.00,WeatherTracker,2013-03-08 19:05:00,
2013-03-08 13:15:00,52.9,32.0,29.32,NNW,337,9.0,9.0,44,0.00,,,0.00,WeatherTracker,2013-03-08 19:15:00,
2013-03-08 13:25:00,53.1,30.2,29.32,North,0,6.0,9.0,43,0.00,,,0.00,WeatherTracker,2013-03-08 19:25:00,
2013-03-08 13:30:00,53.4,32.0,29.32,NNW,337,8.0,11.0,43,0.00,,,0.00,WeatherTracker,2013-03-08 19:30:00,
2013-03-08 13:40:00,53.8,32.0,29.29,NNE,22,10.0,13.0,43,0.00,,,0.00,WeatherTracker,2013-03-08 19:40:00,
2013-03-08 13:50:00,54.3,32.0,29.29,North,0,8.0,10.0,43,0.00,,,0.00,WeatherTracker,2013-03-08 19:50:00,
2013-03-08 14:00:00,54.5,32.0,29.29,North,0,9.0,10.0,42,0.00,,,0.00,WeatherTracker,2013-03-08 20:00:00,
2013-03-08 14:05:00,54.7,32.0,29.29,East,90,9.0,9.0,41,0.00,,,0.00,WeatherTracker,2013-03-08 20:05:00,
2013-03-08 14:10:00,54.7,32.0,29.29,North,0,9.0,10.0,42,0.00,,,0.00,WeatherTracker,2013-03-08 20:10:00,
2013-03-08 14:15:00,54.7,32.0,29.29,NNE,22,8.0,8.0,42,0.00,,,0.00,WeatherTracker,2013-03-08 20:15:00,
2013-03-08 14:20:00,54.9,32.0,29.26,North,0,13.0,13.0,42,0.00,,,0.00,WeatherTracker,2013-03-08 20:20:00,
2013-03-08 14:25:00,55.0,33.8,29.26,NNE,22,10.0,10.0,42,0.00,,,0.00,WeatherTracker,2013-03-08 20:25:00,
2013-03-08 14:35:00,55.0,33.8,29.26,NNE,22,9.0,11.0,42,0.00,,,0.00,WeatherTracker,2013-03-08 20:35:00,
2013-03-08 14:40:00,55.2,32.0,29.26,NNE,22,10.0,13.0,41,0.00,,,0.00,WeatherTracker,2013-03-08 20:40:00,
2013-03-08 14:50:00,55.4,32.0,29.26,North,0,9.0,11.0,40,0.00,,,0.00,WeatherTracker,2013-03-08 20:50:00,
2013-03-08 15:00:00,55.8,32.0,29.26,North,0,8.0,8.0,39,0.00,,,0.00,WeatherTracker,2013-03-08 21:00:00,
2013-03-08 15:05:00,55.8,32.0,29.26,North,0,9.0,9.0,39,0.00,,,0.00,WeatherTracker,2013-03-08 21:05:00,
2013-03-08 15:15:00,56.5,32.0,29.26,NNW,337,7.0,7.0,38,0.00,,,0.00,WeatherTracker,2013-03-08 21:15:00,
2013-03-08 15:20:00,56.7,30.2,29.26,NNE,22,11.0,15.0,37,0.00,,,0.00,WeatherTracker,2013-03-08 21:20:00,
2013-03-08 15:25:00,56.8,30.2,29.26,North,0,9.0,13.0,37,0.00,,,0.00,WeatherTracker,2013-03-08 21:25:00,
2013-03-08 15:35:00,57.6,32.0,29.26,North,0,10.0,10.0,36,0.00,,,0.00,WeatherTracker,2013-03-08 21:35:00,
2013-03-08 15:45:00,57.6,32.0,29.26,North,0,9.0,9.0,36,0.00,,,0.00,WeatherTracker,2013-03-08 21:45:00,
2013-03-08 15:50:00,57.7,32.0,29.23,NNE,22,8.0,8.0,36,0.00,,,0.00,WeatherTracker,2013-03-08 21:50:00,
2013-03-08 16:00:00,58.1,32.0,29.23,North,0,6.0,6.0,36,0.00,,,0.00,WeatherTracker,2013-03-08 22:00:00,
2013-03-08 16:05:00,58.3,32.0,29.23,North,0,9.0,9.0,36,0.00,,,0.00,WeatherTracker,2013-03-08 22:05:00,
2013-03-08 16:10:00,58.5,30.2,29.23,NNE,22,8.0,9.0,35,0.00,,,0.00,WeatherTracker,2013-03-08 22:10:00,
2013-03-08 16:20:00,58.8,32.0,29.23,NNW,337,8.0,11.0,35,0.00,,,0.00,WeatherTracker,2013-03-08 22:20:00,
2013-03-08 16:25:00,58.8,32.0,29.23,NNE,22,8.0,11.0,35,0.00,,,0.00,WeatherTracker,2013-03-08 22:25:00,
2013-03-08 16:35:00,58.6,30.2,29.23,North,0,9.0,9.0,35,0.00,,,0.00,WeatherTracker,2013-03-08 22:35:00,
2013-03-08 16:45:00,58.8,32.0,29.23,North,0,10.0,10.0,35,0.00,,,0.00,WeatherTracker,2013-03-08 22:45:00,
2013-03-08 16:50:00,58.8,32.0,29.23,NNE,22,6.0,8.0,35,0.00,,,0.00,WeatherTracker,2013-03-08 22:50:00,
2013-03-08 17:00:00,59.0,32.0,29.23,North,0,10.0,10.0,35,0.00,,,0.00,WeatherTracker,2013-03-08 23:00:00,
2013-03-08 17:10:00,58.8,32.0,29.23,NNE,22,7.0,8.0,35,0.00,,,0.00,WeatherTracker,2013-03-08 23:10:00,
2013-03-08 17:20:00,58.8,32.0,29.23,NNW,337,7.0,9.0,35,0.00,,,0.00,WeatherTracker,2013-03-08 23:20:00,
2013-03-08 17:30:00,59.2,32.0,29.23,North,0,8.0,10.0,35,0.00,,,0.00,WeatherTracker,2013-03-08 23:30:00,
2013-03-08 17:35:00,59.2,32.0,29.23,NNW,337,10.0,10.0,35,0.00,,,0.00,WeatherTracker,2013-03-08 23:35:00,
2013-03-08 17:45:00,59.4,32.0,29.23,North,0,8.0,9.0,34,0.00,,,0.00,WeatherTracker,2013-03-08 23:45:00,
2013-03-08 17:55:00,59.5,32.0,29.23,North,0,10.0,10.0,34,0.00,,,0.00,WeatherTracker,2013-03-08 23:55:00,
2013-03-08 18:00:00,59.5,32.0,29.23,North,0,9.0,9.0,34,0.00,,,0.00,WeatherTracker,2013-03-09 00:00:00,
2013-03-08 18:10:00,59.5,30.2,29.23,North,0,10.0,10.0,33,0.00,,,0.00,WeatherTracker,2013-03-09 00:10:00,
2013-03-08 18:15:00,59.5,30.2,29.23,NNE,22,8.0,8.0,33,0.00,,,0.00,WeatherTracker,2013-03-09 00:15:00,
2013-03-08 18:20:00,59.5,30.2,29.21,North,0,10.0,10.0,33,0.00,,,0.00,WeatherTracker,2013-03-09 00:20:00,
2013-03-08 18:30:00,59.4,30.2,29.21,NNW,337,9.0,10.0,32,0.00,,,0.00,WeatherTracker,2013-03-09 00:30:00,
2013-03-08 18:40:00,59.5,30.2,29.21,North,0,9.0,9.0,32,0.00,,,0.00,WeatherTracker,2013-03-09 00:40:00,
2013-03-08 18:45:00,59.5,30.2,29.21,North,0,9.0,10.0,32,0.00,,,0.00,WeatherTracker,2013-03-09 00:45:00,
2013-03-08 18:50:00,59.5,30.2,29.23,North,0,8.0,11.0,32,0.00,,,0.00,WeatherTracker,2013-03-09 00:50:00,
2013-03-08 18:55:00,59.5,30.2,29.23,North,0,8.0,9.0,32,0.00,,,0.00,WeatherTracker,2013-03-09 00:55:00,
2013-03-08 19:05:00,59.4,30.2,29.23,NNW,337,10.0,11.0,32,0.00,,,0.00,WeatherTracker,2013-03-09 01:05:00,
2013-03-08 19:15:00,59.4,30.2,29.23,NNE,22,7.0,7.0,32,0.00,,,0.00,WeatherTracker,2013-03-09 01:15:00,
2013-03-08 19:20:00,59.4,30.2,29.21,NNE,22,8.0,10.0,32,0.00,,,0.00,WeatherTracker,2013-03-09 01:20:00,
2013-03-08 19:30:00,59.4,30.2,29.21,NNE,22,7.0,14.0,32,0.00,,,0.00,WeatherTracker,2013-03-09 01:30:00,
2013-03-08 19:40:00,59.2,30.2,29.21,North,0,7.0,7.0,32,0.00,,,0.00,WeatherTracker,2013-03-09 01:40:00,
2013-03-08 19:45:00,59.2,30.2,29.21,NNE,22,7.0,9.0,32,0.00,,,0.00,WeatherTracker,2013-03-09 01:45:00,
2013-03-08 19:55:00,59.2,28.4,29.21,NNW,337,8.0,8.0,31,0.00,,,0.00,WeatherTracker,2013-03-09 01:55:00,
2013-03-08 20:00:00,59.2,28.4,29.21,North,0,10.0,11.0,31,0.00,,,0.00,WeatherTracker,2013-03-09 02:00:00,
2013-03-08 20:05:00,59.4,30.2,29.23,NNW,337,10.0,10.0,31,0.00,,,0.00,WeatherTracker,2013-03-09 02:05:00,
2013-03-08 20:15:00,59.4,28.4,29.23,NNW,337,9.0,9.0,30,0.00,,,0.00,WeatherTracker,2013-03-09 02:15:00,
2013-03-08 20:25:00,59.2,28.4,29.23,North,0,7.0,8.0,30,0.00,,,0.00,WeatherTracker,2013-03-09 02:25:00,
2013-03-08 20:30:00,59.2,28.4,29.23,NNW,337,8.0,9.0,30,0.00,,,0.00,WeatherTracker,2013-03-09 02:30:00,
2013-03-08 20:40:00,59.2,28.4,29.23,NNE,22,9.0,10.0,30,0.00,,,0.00,WeatherTracker,2013-03-09 02:40:00,
2013-03-08 20:45:00,59.2,28.4,29.23,NNW,337,7.0,9.0,30,0.00,,,0.00,WeatherTracker,2013-03-09 02:45:00,
2013-03-08 20:50:00,59.4,28.4,29.23,North,0,11.0,11.0,30,0.00,,,0.00,WeatherTracker,2013-03-09 02:50:00,
2013-03-08 21:00:00,59.0,28.4,29.23,NNE,22,6.0,6.0,30,0.00,,,0.00,WeatherTracker,2013-03-09 03:00:00,
2013-03-08 21:05:00,58.8,28.4,29.23,North,0,5.0,6.0,31,0.00,,,0.00,WeatherTracker,2013-03-09 03:05:00,
2013-03-08 21:15:00,59.0,28.4,29.23,NNE,22,9.0,9.0,30,0.00,,,0.00,WeatherTracker,2013-03-09 03:15:00,
2013-03-08 21:25:00,58.8,28.4,29.21,North,0,7.0,8.0,31,0.00,,,0.00,WeatherTracker,2013-03-09 03:25:00,
2013-03-08 21:30:00,59.0,28.4,29.21,North,0,11.0,11.0,31,0.00,,,0.00,WeatherTracker,2013-03-09 03:30:00,
2013-03-08 21:40:00,58.8,28.4,29.21,NNW,337,8.0,8.0,31,0.00,,,0.00,WeatherTracker,2013-03-09 03:40:00,
2013-03-08 21:50:00,58.8,28.4,29.21,North,0,9.0,9.0,31,0.00,,,0.00,WeatherTracker,2013-03-09 03:50:00,
2013-03-08 21:55:00,58.8,28.4,29.21,NNE,22,10.0,10.0,31,0.00,,,0.00,WeatherTracker,2013-03-09 03:55:00,
2013-03-08 22:00:00,59.0,28.4,29.21,NNE,22,11.0,12.0,31,0.00,,,0.00,WeatherTracker,2013-03-09 04:00:00,
2013-03-08 22:10:00,58.8,28.4,29.23,North,0,11.0,11.0,31,0.00,,,0.00,WeatherTracker,2013-03-09 04:10:00,
2013-03-08 22:15:00,59.0,28.4,29.23,North,0,11.0,11.0,31,0.00,,,0.00,WeatherTracker,2013-03-09 04:15:00,
2013-03-08 22:25:00,59.0,28.4,29.21,NNE,22,14.0,16.0,31,0.00,,,0.00,WeatherTracker,2013-03-09 04:25:00,
2013-03-08 22:35:00,59.2,28.4,29.21,North,0,13.0,13.0,31,0.00,,,0.00,WeatherTracker,2013-03-09 04:35:00,
2013-03-08 22:45:00,58.8,28.4,29.21,NNE,22,11.0,11.0,31,0.00,,,0.00,WeatherTracker,2013-03-09 04:45:00,
2013-03-08 22:50:00,58.8,28.4,29.18,North,0,11.0,11.0,31,0.00,,,0.00,WeatherTracker,2013-03-09 04:50:00,
2013-03-08 23:00:00,58.8,28.4,29.18,North,0,13.0,15.0,31,0.00,,,0.00,WeatherTracker,2013-03-09 05:00:00,
2013-03-08 23:05:00,58.6,28.4,29.18,NNE,22,11.0,17.0,31,0.00,,,0.00,WeatherTracker,2013-03-09 05:05:00,
2013-03-08 23:10:00,58.5,28.4,29.18,North,0,10.0,11.0,31,0.00,,,0.00,WeatherTracker,2013-03-09 05:10:00,
2013-03-08 23:15:00,58.5,28.4,29.18,North,0,11.0,11.0,31,0.00,,,0.00,WeatherTracker,2013-03-09 05:15:00,
2013-03-08 23:20:00,58.6,28.4,29.18,North,0,11.0,11.0,31,0.00,,,0.00,WeatherTracker,2013-03-09 05:20:00,
2013-03-08 23:30:00,58.6,28.4,29.18,NNE,22,9.0,9.0,31,0.00,,,0.00,WeatherTracker,2013-03-09 05:30:00,
2013-03-08 23:35:00,58.6,28.4,29.18,NNE,22,10.0,13.0,31,0.00,,,0.00,WeatherTracker,2013-03-09 05:35:00,
2013-03-08 23:45:00,58.8,30.2,29.18,North,0,9.0,9.0,32,0.00,,,0.00,WeatherTracker,2013-03-09 05:45:00,
2013-03-08 23:55:00,59.0,30.2,29.15,North,0,8.0,8.0,32,0.00,,,0.00,WeatherTracker,2013-03-09 05:55:00,